createdAt,value
2019-04-30T00:00:38.377Z,34.6
2019-04-30T00:03:50.410Z,34.6
2019-04-30T00:07:10.139Z,34.4
2019-04-30T00:10:36.696Z,34.5
2019-04-30T00:13:54.643Z,34.5
2019-04-30T00:17:10.661Z,34.5
2019-04-30T00:20:29.966Z,34.6
2019-04-30T00:23:45.784Z,34.5
2019-04-30T00:26:55.010Z,34.6
2019-04-30T00:30:09.022Z,34.6
2019-04-30T00:33:25.109Z,34.6
2019-04-30T00:36:37.378Z,34.6
2019-04-30T00:39:51.361Z,34.7
2019-04-30T00:43:08.847Z,34.8
2019-04-30T00:46:24.890Z,34.8
2019-04-30T00:49:40.074Z,34.8
2019-04-30T00:52:48.668Z,34.9
2019-04-30T00:55:57.902Z,34.9
2019-04-30T00:59:10.347Z,34.9
2019-04-30T01:02:32.135Z,34.9
2019-04-30T01:05:47.963Z,35
2019-04-30T01:09:05.281Z,35
2019-04-30T01:12:28.907Z,35
2019-04-30T01:15:54.255Z,35.1
2019-04-30T01:19:09.941Z,35.2
2019-04-30T01:22:39.451Z,35.2
2019-04-30T01:25:51.449Z,35.2
2019-04-30T01:29:02.125Z,35.3
2019-04-30T01:32:20.765Z,35.2
2019-04-30T01:35:32.778Z,35.3
2019-04-30T01:38:52.322Z,35.3
2019-04-30T01:42:02.822Z,35.4
2019-04-30T01:45:16.578Z,35.4
2019-04-30T01:48:35.633Z,35.4
2019-04-30T01:51:43.747Z,35.4
2019-04-30T01:55:04.646Z,35.4
2019-04-30T01:58:12.473Z,35.5
2019-04-30T02:01:19.661Z,35.5
2019-04-30T02:04:25.790Z,35.5
2019-04-30T02:07:35.474Z,35.5
2019-04-30T02:10:45.308Z,35.5
2019-04-30T02:13:55.550Z,35.4
2019-04-30T02:17:03.569Z,35.5
2019-04-30T02:20:09.836Z,35.5
2019-04-30T02:23:15.993Z,35.6
2019-04-30T02:26:24.126Z,35.5
2019-04-30T02:29:32.536Z,35.6
2019-04-30T02:32:40.244Z,35.5
2019-04-30T02:35:46.608Z,35.5
2019-04-30T02:38:55.830Z,35.5
2019-04-30T02:42:13.036Z,35.5
2019-04-30T02:45:20.460Z,35.5
2019-04-30T02:48:29.153Z,35.5
2019-04-30T02:51:35.802Z,35.6
2019-04-30T02:54:44.893Z,35.5
2019-04-30T02:57:54.409Z,35.5
2019-04-30T03:01:00.914Z,35.5
2019-04-30T03:04:09.625Z,35.5
2019-04-30T03:07:16.006Z,35.5
2019-04-30T03:10:24.515Z,35.5
2019-04-30T03:13:30.668Z,35.5
2019-04-30T03:16:36.937Z,35.4
2019-04-30T03:19:45.750Z,35.3
2019-04-30T03:22:54.697Z,35.3
2019-04-30T03:26:04.238Z,35.1
2019-04-30T03:29:11.919Z,35.1
2019-04-30T03:32:23.209Z,35.1
2019-04-30T03:35:52.743Z,35
2019-04-30T03:39:06.121Z,35
2019-04-30T03:42:16.119Z,35
2019-04-30T03:45:25.055Z,34.9
2019-04-30T03:48:33.977Z,34.9
2019-04-30T03:51:41.063Z,34.9
2019-04-30T03:54:49.990Z,34.8
2019-04-30T03:57:56.257Z,34.7
2019-04-30T04:01:05.627Z,34.6
2019-04-30T04:04:20.544Z,34.6
2019-04-30T04:07:26.732Z,34.6
2019-04-30T04:10:35.560Z,34.5
2019-04-30T04:13:44.193Z,34.4
2019-04-30T04:16:51.504Z,34.4
2019-04-30T04:20:00.502Z,34.4
2019-04-30T04:23:06.717Z,34.3
2019-04-30T04:26:15.294Z,34.4
2019-04-30T04:29:24.012Z,34.3
2019-04-30T04:32:33.677Z,34.3
2019-04-30T04:35:40.029Z,34.2
2019-04-30T04:38:46.197Z,34.1
2019-04-30T04:41:55.581Z,34.2
2019-04-30T04:45:04.237Z,34
2019-04-30T04:48:13.696Z,33.6
2019-04-30T04:51:39.204Z,33.7
2019-04-30T04:54:51.224Z,35.7
2019-04-30T04:58:00.348Z,33.5
2019-04-30T05:01:08.631Z,33.5
2019-04-30T05:04:20.582Z,34.1
2019-04-30T05:07:28.632Z,34.4
2019-04-30T05:10:35.168Z,34.1
2019-04-30T05:13:43.044Z,34.1
2019-04-30T05:16:49.522Z,33.8
2019-04-30T05:19:55.790Z,34.3
2019-04-30T05:23:03.802Z,34.1
2019-04-30T05:26:11.593Z,34.6
2019-04-30T05:29:19.708Z,34
2019-04-30T05:32:25.868Z,33.8
2019-04-30T05:35:33.709Z,33.1
2019-04-30T05:38:39.951Z,33
2019-04-30T05:41:46.196Z,32.8
2019-04-30T05:44:55.174Z,33.1
2019-04-30T05:48:03.061Z,32.9
2019-04-30T05:51:09.624Z,32.6
2019-04-30T05:54:15.776Z,32.6
2019-04-30T05:57:26.444Z,32.7
2019-04-30T06:00:34.574Z,32.5
2019-04-30T06:03:40.731Z,31.8
2019-04-30T06:06:48.659Z,32.3
2019-04-30T06:09:59.581Z,31.9
2019-04-30T06:13:05.813Z,32
2019-04-30T06:16:13.983Z,31.7
2019-04-30T06:19:20.251Z,31.7
2019-04-30T06:22:26.515Z,31.5
2019-04-30T06:26:00.559Z,31.4
2019-04-30T06:29:19.601Z,32.2
2019-04-30T06:32:25.761Z,31
2019-04-30T06:35:33.875Z,31.1
2019-04-30T06:38:40.043Z,31.1
2019-04-30T06:41:46.301Z,32.1
2019-04-30T06:44:54.356Z,31.1
2019-04-30T06:48:00.587Z,31.2
2019-04-30T06:51:06.763Z,31.3
2019-04-30T06:54:14.772Z,31.1
2019-04-30T06:57:23.127Z,30.6
2019-04-30T07:00:35.783Z,30.9
2019-04-30T07:03:44.422Z,30.5
2019-04-30T07:06:52.511Z,31.5
2019-04-30T07:10:01.557Z,31
2019-04-30T07:13:09.368Z,31
2019-04-30T07:16:15.543Z,30.6
2019-04-30T07:19:50.073Z,30.6
2019-04-30T07:23:04.613Z,30.8
2019-04-30T07:26:19.582Z,30.8
2019-04-30T07:29:32.808Z,30.7
2019-04-30T07:32:39.484Z,31.4
2019-04-30T07:35:50.473Z,31.1
2019-04-30T07:38:59.853Z,31.3
2019-04-30T07:42:06.279Z,31.2
2019-04-30T07:45:14.600Z,30.8
2019-04-30T07:48:27.097Z,30.5
2019-04-30T07:51:41.809Z,30.7
2019-04-30T07:54:52.642Z,30.7
2019-04-30T07:58:00.030Z,30.8
2019-04-30T08:01:06.313Z,30.8
2019-04-30T08:04:15.816Z,30.9
2019-04-30T08:07:26.457Z,30.8
2019-04-30T08:10:35.239Z,30.5
2019-04-30T08:13:44.956Z,30.3
2019-04-30T08:16:55.817Z,30
2019-04-30T08:20:03.969Z,29.9
2019-04-30T08:23:34.533Z,29.7
2019-04-30T08:26:44.901Z,29.1
2019-04-30T08:29:52.576Z,29.4
2019-04-30T08:33:00.282Z,29.3
2019-04-30T08:36:06.461Z,29.7
2019-04-30T08:39:14.566Z,29.5
2019-04-30T08:42:37.631Z,29.5
2019-04-30T08:45:46.235Z,29
2019-04-30T08:48:54.546Z,29.2
2019-04-30T08:52:02.763Z,29.2
2019-04-30T08:55:19.334Z,29.8
2019-04-30T08:58:29.942Z,28.7
2019-04-30T09:01:36.209Z,28.2
2019-04-30T09:04:44.273Z,28.8
2019-04-30T09:07:50.483Z,29.2
2019-04-30T09:10:56.652Z,29
2019-04-30T09:14:04.558Z,29.2
2019-04-30T09:17:12.458Z,29.1
2019-04-30T09:20:20.056Z,29.3
2019-04-30T09:23:26.331Z,29.7
2019-04-30T09:26:58.854Z,29.3
2019-04-30T09:30:05.381Z,28.9
2019-04-30T09:33:15.435Z,28.6
2019-04-30T09:36:23.716Z,28.7
2019-04-30T09:39:30.319Z,28.3
2019-04-30T09:42:36.581Z,27.9
2019-04-30T09:45:44.654Z,27.9
2019-04-30T09:48:51.472Z,27.6
2019-04-30T09:52:00.323Z,27.8
2019-04-30T09:55:09.344Z,27.7
2019-04-30T09:58:21.852Z,28.5
2019-04-30T10:01:28.120Z,28.1
2019-04-30T10:04:40.834Z,28.1
2019-04-30T10:07:50.184Z,28.3
2019-04-30T10:10:56.445Z,28.4
2019-04-30T10:14:04.449Z,28.7
2019-04-30T10:17:10.760Z,28.4
2019-04-30T10:20:16.975Z,28.6
2019-04-30T10:23:23.102Z,29
2019-04-30T10:26:29.305Z,28.8
2019-04-30T10:29:35.583Z,28.8
2019-04-30T10:32:45.501Z,28.6
2019-04-30T10:35:55.069Z,28.7
2019-04-30T10:39:03.186Z,28.6
2019-04-30T10:42:09.664Z,28.6
2019-04-30T10:45:15.778Z,28.4
2019-04-30T10:48:24.253Z,28.4
2019-04-30T10:51:30.494Z,28.4
2019-04-30T10:54:38.723Z,28.8
2019-04-30T10:57:45.116Z,29
2019-04-30T11:00:53.411Z,29.6
2019-04-30T11:03:59.673Z,28.9
2019-04-30T11:07:05.831Z,28.6
2019-04-30T11:10:13.649Z,28.5
2019-04-30T11:13:20.212Z,28.5
2019-04-30T11:16:26.376Z,28.5
2019-04-30T11:19:34.611Z,28.5
2019-04-30T11:22:44.091Z,28.4
2019-04-30T11:25:52.834Z,28.9
2019-04-30T11:29:05.357Z,28.8
2019-04-30T11:32:12.621Z,28.7
2019-04-30T11:35:21.390Z,28.3
2019-04-30T11:38:27.540Z,28.3
2019-04-30T11:41:35.664Z,28
2019-04-30T11:44:43.862Z,28.1
2019-04-30T11:47:54.344Z,27.7
2019-04-30T11:51:00.712Z,27.8
2019-04-30T11:54:08.465Z,27.9
2019-04-30T11:57:15.107Z,28.4
2019-04-30T12:00:23.300Z,28.6
2019-04-30T12:03:31.000Z,28.1
2019-04-30T12:06:37.165Z,27.9
2019-04-30T12:09:45.044Z,27.7
2019-04-30T12:12:52.877Z,27.9
2019-04-30T12:15:59.653Z,27.8
2019-04-30T12:19:05.921Z,27.6
2019-04-30T12:22:15.660Z,27.8
2019-04-30T12:25:25.209Z,27
2019-04-30T12:28:31.371Z,27.7
2019-04-30T12:31:37.637Z,27.3
2019-04-30T12:34:43.776Z,27.9
2019-04-30T12:37:53.036Z,27.3
2019-04-30T12:40:59.309Z,27.3
2019-04-30T12:44:05.677Z,27.1
2019-04-30T12:47:11.824Z,27.6
2019-04-30T12:50:20.060Z,26.8
2019-04-30T12:53:26.328Z,27.9
2019-04-30T12:56:32.483Z,28.6
2019-04-30T12:59:38.750Z,27.8
2019-04-30T13:02:44.937Z,27.5
2019-04-30T13:05:52.756Z,27.6
2019-04-30T13:09:10.114Z,27.8
2019-04-30T13:12:24.718Z,27.3
2019-04-30T13:15:32.871Z,27.4
2019-04-30T13:18:40.007Z,27.5
2019-04-30T13:21:46.274Z,27.3
2019-04-30T13:24:52.570Z,27.5
2019-04-30T13:27:59.220Z,27.6
2019-04-30T13:31:05.494Z,27.3
2019-04-30T13:34:13.697Z,27.7
2019-04-30T13:37:19.866Z,27.7
2019-04-30T13:40:26.006Z,27.6
2019-04-30T13:43:34.244Z,27.4
2019-04-30T13:46:43.994Z,27.4
2019-04-30T13:49:50.186Z,27
2019-04-30T13:52:56.417Z,27.2
2019-04-30T13:56:04.530Z,28.3
2019-04-30T13:59:10.730Z,27.3
2019-04-30T14:02:18.584Z,27.1
2019-04-30T14:05:24.871Z,27.3
2019-04-30T14:08:31.036Z,27.1
2019-04-30T14:11:37.162Z,27.1
2019-04-30T14:14:43.363Z,27.1
2019-04-30T14:17:50.046Z,27
2019-04-30T14:20:56.305Z,26.9
2019-04-30T14:24:05.885Z,26.9
2019-04-30T14:27:13.979Z,27
2019-04-30T14:30:20.229Z,27.1
2019-04-30T16:57:40.293Z,28.2
2019-04-30T17:00:46.572Z,28.2
2019-04-30T17:03:54.870Z,28.4
2019-04-30T17:07:02.770Z,28.5
2019-04-30T17:10:09.651Z,28.6
2019-04-30T17:13:15.815Z,28.6
2019-04-30T17:16:24.027Z,28.6
2019-04-30T17:19:30.294Z,28.7
2019-04-30T17:22:36.563Z,28.7
2019-04-30T17:25:44.570Z,28.8
2019-04-30T17:28:50.851Z,28.7
2019-04-30T17:31:57.119Z,28.7
2019-04-30T17:35:03.257Z,28.7
2019-04-30T17:38:09.438Z,28.8
2019-04-30T17:41:15.602Z,28.8
2019-04-30T17:44:21.770Z,28.8
2019-04-30T17:47:29.363Z,28.7
2019-04-30T17:50:35.634Z,28.7
2019-04-30T17:53:44.021Z,28.9
2019-04-30T17:56:50.223Z,28.9
2019-04-30T17:59:56.337Z,28.8
2019-04-30T18:03:04.408Z,28.8
2019-04-30T18:06:12.287Z,28.9
2019-04-30T18:09:19.785Z,28.9
2019-04-30T18:12:26.063Z,28.9
2019-04-30T18:15:34.264Z,28.9
2019-04-30T18:18:40.392Z,29
2019-04-30T18:21:48.472Z,29
2019-04-30T18:24:54.805Z,29
2019-04-30T18:28:01.077Z,29
2019-04-30T18:31:09.389Z,29.1
2019-04-30T18:34:20.066Z,29
2019-04-30T18:37:26.300Z,29.1
2019-04-30T18:40:34.541Z,29
2019-04-30T18:43:41.217Z,29
2019-04-30T18:46:49.733Z,29
2019-04-30T18:49:55.922Z,29
2019-04-30T18:53:03.915Z,29
2019-04-30T18:56:15.299Z,29
2019-04-30T18:59:23.510Z,28.9
2019-04-30T19:02:29.673Z,28.8
2019-04-30T19:05:35.937Z,28.9
2019-04-30T19:08:45.201Z,28.9
2019-04-30T19:11:51.445Z,29
2019-04-30T19:14:59.658Z,29
2019-04-30T19:18:05.785Z,29.1
2019-04-30T19:21:11.979Z,29.1
2019-04-30T19:24:20.300Z,29.1
2019-04-30T19:27:26.577Z,29.2
2019-04-30T19:30:34.787Z,29.1
2019-04-30T19:33:42.894Z,29.1
2019-04-30T19:36:49.875Z,29.1
2019-04-30T19:39:56.037Z,29.1
2019-04-30T19:43:07.014Z,29.1
2019-04-30T19:46:13.145Z,29
2019-04-30T19:49:19.859Z,29
2019-04-30T19:52:26.093Z,29
2019-04-30T19:55:34.852Z,28.9
2019-04-30T19:59:01.924Z,28.9
2019-04-30T20:02:13.085Z,28.7
2019-04-30T20:05:20.077Z,28.7
2019-04-30T20:08:26.347Z,28.8
2019-04-30T20:11:34.319Z,28.7
2019-04-30T20:14:40.506Z,28.8
2019-04-30T20:17:46.873Z,28.6
2019-04-30T20:20:54.886Z,28.6
2019-04-30T20:24:04.941Z,28.7
2019-04-30T20:27:11.219Z,28.7
2019-04-30T20:30:19.400Z,28.6
2019-04-30T20:33:25.817Z,28.6
2019-04-30T20:36:34.101Z,28.6
2019-04-30T20:39:40.226Z,28.6
2019-04-30T20:42:48.573Z,28.5
2019-04-30T20:45:54.877Z,28.5
2019-04-30T20:49:05.016Z,28.4
2019-04-30T20:52:13.124Z,28.4
2019-04-30T20:55:25.571Z,28.4
2019-04-30T20:58:31.794Z,28.4
2019-04-30T21:01:39.900Z,28.4
2019-04-30T21:04:46.169Z,28.4
2019-04-30T21:07:55.506Z,28.4
2019-04-30T21:11:01.637Z,28.3
2019-04-30T21:14:09.576Z,28.3
2019-04-30T21:17:15.842Z,28.2
2019-04-30T21:20:21.974Z,28.2
2019-04-30T21:23:29.927Z,28.3
2019-04-30T21:26:36.053Z,28.3
2019-04-30T21:29:42.343Z,28.3
2019-04-30T21:32:49.349Z,28.2
2019-04-30T21:35:55.711Z,28.2
2019-04-30T21:39:03.650Z,28.2
2019-04-30T21:42:10.099Z,28.2
2019-04-30T21:45:16.314Z,28.1
2019-04-30T21:48:22.516Z,28.2
2019-04-30T21:51:28.673Z,28.1
2019-04-30T21:54:34.860Z,28.2
2019-04-30T21:57:43.110Z,28.2
2019-04-30T22:00:50.139Z,28.1
2019-04-30T22:03:56.284Z,28.2
2019-04-30T22:07:02.463Z,28.1
2019-04-30T22:10:08.604Z,28
2019-04-30T22:13:14.787Z,28
2019-04-30T22:16:22.907Z,28
2019-04-30T22:19:29.041Z,28.1
2019-04-30T22:22:35.236Z,28.1
2019-04-30T22:25:43.547Z,28
2019-04-30T22:28:50.119Z,28
2019-04-30T22:31:56.385Z,28.1
2019-04-30T22:35:04.398Z,28
2019-04-30T22:38:10.649Z,28
2019-04-30T22:41:16.824Z,28
2019-04-30T22:44:27.762Z,28
2019-04-30T22:47:33.967Z,28
2019-04-30T22:50:40.235Z,27.9
2019-04-30T22:53:46.362Z,28
2019-04-30T22:56:52.572Z,27.9
2019-04-30T22:59:58.726Z,28
2019-04-30T23:03:04.896Z,28
2019-04-30T23:06:11.166Z,28
2019-04-30T23:09:17.282Z,27.9
2019-04-30T23:12:23.485Z,27.9
2019-04-30T23:15:29.607Z,28
2019-04-30T23:18:35.818Z,28
2019-04-30T23:21:41.970Z,27.9
2019-04-30T23:24:48.251Z,28
2019-04-30T23:27:54.410Z,28
2019-04-30T23:31:00.533Z,28
2019-04-30T23:34:18.428Z,28
2019-04-30T23:37:24.572Z,28
2019-04-30T23:40:30.839Z,28
2019-04-30T23:43:36.966Z,28
2019-04-30T23:46:43.173Z,28
2019-04-30T23:49:49.331Z,28
2019-04-30T23:52:55.501Z,28
2019-04-30T23:56:01.769Z,28
2019-04-30T23:59:07.952Z,27.9
